sensor_id;sensor_type;location;lat;lon;timestamp;P1;durP1;ratioP1;P2;durP2;ratioP2
705;SDS011;21234;48.690;9.016;2023-06-26T00:01:03;8.60;;;7.40;;
705;SDS011;21234;48.690;9.016;2023-06-26T00:03:31;9.10;;;8.03;;
705;SDS011;21234;48.690;9.016;2023-06-26T00:05:58;7.97;;;7.03;;
705;SDS011;21234;48.690;9.016;2023-06-26T00:08:26;8.13;;;7.33;;
705;SDS011;21234;48.690;9.016;2023-06-26T00:10:54;9.13;;;7.00;;
705;SDS011;21234;48.690;9.016;2023-06-26T00:13:21;9.83;;;8.83;;
705;SDS011;21234;48.690;9.016;2023-06-26T00:15:49;8.37;;;7.50;;
705;SDS011;21234;48.690;9.016;2023-06-26T00:18:16;8.70;;;6.80;;
705;SDS011;21234;48.690;9.016;2023-06-26T00:20:43;10.40;;;8.77;;
705;SDS011;21234;48.690;9.016;2023-06-26T00:23:11;8.97;;;8.07;;
705;SDS011;21234;48.690;9.016;2023-06-26T00:25:38;8.77;;;7.00;;
705;SDS011;21234;48.690;9.016;2023-06-26T00:28:06;9.00;;;8.10;;
705;SDS011;21234;48.690;9.016;2023-06-26T00:30:33;8.77;;;7.50;;
705;SDS011;21234;48.690;9.016;2023-06-26T00:32:59;8.87;;;7.73;;
705;SDS011;21234;48.690;9.016;2023-06-26T00:35:27;9.63;;;8.40;;
705;SDS011;21234;48.690;9.016;2023-06-26T00:37:53;9.93;;;7.80;;
705;SDS011;21234;48.690;9.016;2023-06-26T00:40:20;9.73;;;7.80;;
705;SDS011;21234;48.690;9.016;2023-06-26T00:42:47;8.63;;;7.40;;
705;SDS011;21234;48.690;9.016;2023-06-26T00:45:15;10.87;;;7.90;;
705;SDS011;21234;48.690;9.016;2023-06-26T00:47:42;9.20;;;7.30;;
705;SDS011;21234;48.690;9.016;2023-06-26T00:50:09;9.87;;;7.90;;
705;SDS011;21234;48.690;9.016;2023-06-26T00:52:36;9.40;;;7.87;;
705;SDS011;21234;48.690;9.016;2023-06-26T00:55:04;8.20;;;7.40;;
705;SDS011;21234;48.690;9.016;2023-06-26T00:57:31;8.67;;;7.53;;
705;SDS011;21234;48.690;9.016;2023-06-26T00:59:59;9.50;;;8.15;;
705;SDS011;21234;48.690;9.016;2023-06-26T01:02:30;9.13;;;7.93;;
705;SDS011;21234;48.690;9.016;2023-06-26T01:04:59;8.43;;;7.23;;
705;SDS011;21234;48.690;9.016;2023-06-26T01:07:28;9.33;;;7.70;;
705;SDS011;21234;48.690;9.016;2023-06-26T01:09:57;11.20;;;8.07;;
705;SDS011;21234;48.690;9.016;2023-06-26T01:12:24;8.23;;;7.30;;
705;SDS011;21234;48.690;9.016;2023-06-26T01:14:51;8.10;;;7.30;;
705;SDS011;21234;48.690;9.016;2023-06-26T01:17:18;9.97;;;7.43;;
705;SDS011;21234;48.690;9.016;2023-06-26T01:19:47;9.00;;;7.90;;
705;SDS011;21234;48.690;9.016;2023-06-26T01:22:18;9.00;;;8.10;;
705;SDS011;21234;48.690;9.016;2023-06-26T01:24:50;8.83;;;7.80;;
705;SDS011;21234;48.690;9.016;2023-06-26T01:27:24;8.27;;;7.47;;
705;SDS011;21234;48.690;9.016;2023-06-26T01:29:52;7.40;;;6.80;;
705;SDS011;21234;48.690;9.016;2023-06-26T01:32:21;10.63;;;8.00;;
705;SDS011;21234;48.690;9.016;2023-06-26T01:34:48;8.77;;;7.70;;
705;SDS011;21234;48.690;9.016;2023-06-26T01:37:15;11.00;;;7.07;;
705;SDS011;21234;48.690;9.016;2023-06-26T01:39:42;9.10;;;7.17;;
705;SDS011;21234;48.690;9.016;2023-06-26T01:42:09;9.07;;;8.17;;
705;SDS011;21234;48.690;9.016;2023-06-26T01:44:38;8.13;;;6.97;;
705;SDS011;21234;48.690;9.016;2023-06-26T01:47:10;11.07;;;7.50;;
705;SDS011;21234;48.690;9.016;2023-06-26T01:49:46;7.67;;;6.90;;
705;SDS011;21234;48.690;9.016;2023-06-26T01:52:16;7.63;;;6.93;;
705;SDS011;21234;48.690;9.016;2023-06-26T01:54:49;8.33;;;6.87;;
705;SDS011;21234;48.690;9.016;2023-06-26T01:57:22;9.70;;;7.80;;
705;SDS011;21234;48.690;9.016;2023-06-26T01:59:51;8.47;;;7.67;;
705;SDS011;21234;48.690;9.016;2023-06-26T02:02:19;8.90;;;6.77;;
705;SDS011;21234;48.690;9.016;2023-06-26T02:04:46;7.90;;;7.10;;
705;SDS011;21234;48.690;9.016;2023-06-26T02:07:14;9.27;;;7.40;;
705;SDS011;21234;48.690;9.016;2023-06-26T02:09:40;9.87;;;8.27;;
705;SDS011;21234;48.690;9.016;2023-06-26T02:12:08;9.20;;;7.90;;
705;SDS011;21234;48.690;9.016;2023-06-26T02:14:35;8.20;;;7.40;;
705;SDS011;21234;48.690;9.016;2023-06-26T02:17:03;8.03;;;7.23;;
705;SDS011;21234;48.690;9.016;2023-06-26T02:19:30;8.73;;;7.80;;
705;SDS011;21234;48.690;9.016;2023-06-26T02:21:57;7.87;;;7.10;;
705;SDS011;21234;48.690;9.016;2023-06-26T02:24:23;11.47;;;8.10;;
705;SDS011;21234;48.690;9.016;2023-06-26T02:26:52;7.57;;;6.77;;
705;SDS011;21234;48.690;9.016;2023-06-26T02:29:19;8.63;;;7.03;;
705;SDS011;21234;48.690;9.016;2023-06-26T02:31:46;10.87;;;8.03;;
705;SDS011;21234;48.690;9.016;2023-06-26T02:34:14;8.43;;;7.63;;
705;SDS011;21234;48.690;9.016;2023-06-26T02:36:40;8.43;;;7.53;;
705;SDS011;21234;48.690;9.016;2023-06-26T02:39:07;7.53;;;6.70;;
705;SDS011;21234;48.690;9.016;2023-06-26T02:41:34;8.30;;;7.10;;
705;SDS011;21234;48.690;9.016;2023-06-26T02:44:01;7.50;;;6.67;;
705;SDS011;21234;48.690;9.016;2023-06-26T02:46:27;11.40;;;7.47;;
705;SDS011;21234;48.690;9.016;2023-06-26T02:48:54;9.70;;;8.00;;
705;SDS011;21234;48.690;9.016;2023-06-26T02:51:23;7.93;;;7.07;;
705;SDS011;21234;48.690;9.016;2023-06-26T02:53:50;8.93;;;8.00;;
705;SDS011;21234;48.690;9.016;2023-06-26T02:56:17;8.30;;;7.50;;
705;SDS011;21234;48.690;9.016;2023-06-26T02:58:44;8.87;;;7.37;;
705;SDS011;21234;48.690;9.016;2023-06-26T03:01:10;10.07;;;8.80;;
705;SDS011;21234;48.690;9.016;2023-06-26T03:03:37;11.53;;;8.33;;
705;SDS011;21234;48.690;9.016;2023-06-26T03:06:06;8.97;;;7.63;;
705;SDS011;21234;48.690;9.016;2023-06-26T03:08:36;9.30;;;8.40;;
705;SDS011;21234;48.690;9.016;2023-06-26T03:11:03;9.70;;;8.70;;
705;SDS011;21234;48.690;9.016;2023-06-26T03:13:30;9.30;;;8.40;;
705;SDS011;21234;48.690;9.016;2023-06-26T03:15:57;9.33;;;7.27;;
705;SDS011;21234;48.690;9.016;2023-06-26T03:18:24;11.23;;;8.30;;
705;SDS011;21234;48.690;9.016;2023-06-26T03:20:51;9.93;;;8.90;;
705;SDS011;21234;48.690;9.016;2023-06-26T03:23:19;8.50;;;7.67;;
705;SDS011;21234;48.690;9.016;2023-06-26T03:25:47;11.27;;;8.27;;
705;SDS011;21234;48.690;9.016;2023-06-26T03:28:14;9.87;;;8.83;;
705;SDS011;21234;48.690;9.016;2023-06-26T03:30:41;9.83;;;8.40;;
705;SDS011;21234;48.690;9.016;2023-06-26T03:33:07;9.53;;;8.60;;
705;SDS011;21234;48.690;9.016;2023-06-26T03:35:34;9.83;;;8.83;;
705;SDS011;21234;48.690;9.016;2023-06-26T03:38:01;9.83;;;7.37;;
705;SDS011;21234;48.690;9.016;2023-06-26T03:40:29;8.70;;;7.90;;
705;SDS011;21234;48.690;9.016;2023-06-26T03:42:57;9.27;;;8.33;;
705;SDS011;21234;48.690;9.016;2023-06-26T03:45:24;8.93;;;8.03;;
705;SDS011;21234;48.690;9.016;2023-06-26T03:47:51;7.97;;;6.73;;
705;SDS011;21234;48.690;9.016;2023-06-26T03:50:18;9.00;;;8.10;;
705;SDS011;21234;48.690;9.016;2023-06-26T03:52:45;11.07;;;8.93;;
705;SDS011;21234;48.690;9.016;2023-06-26T03:55:12;11.33;;;8.43;;
705;SDS011;21234;48.690;9.016;2023-06-26T03:57:39;8.63;;;7.70;;
705;SDS011;21234;48.690;9.016;2023-06-26T04:00:08;9.10;;;7.60;;
705;SDS011;21234;48.690;9.016;2023-06-26T04:02:37;9.00;;;8.10;;
705;SDS011;21234;48.690;9.016;2023-06-26T04:05:05;8.30;;;6.80;;
705;SDS011;21234;48.690;9.016;2023-06-26T04:07:32;8.57;;;7.67;;
705;SDS011;21234;48.690;9.016;2023-06-26T04:09:59;10.27;;;7.93;;
705;SDS011;21234;48.690;9.016;2023-06-26T04:12:26;12.70;;;8.37;;
705;SDS011;21234;48.690;9.016;2023-06-26T04:14:52;7.60;;;6.80;;
705;SDS011;21234;48.690;9.016;2023-06-26T04:17:21;13.00;;;7.83;;
705;SDS011;21234;48.690;9.016;2023-06-26T04:19:48;8.23;;;7.40;;
705;SDS011;21234;48.690;9.016;2023-06-26T04:22:14;9.27;;;6.80;;
705;SDS011;21234;48.690;9.016;2023-06-26T04:24:41;8.90;;;7.70;;
705;SDS011;21234;48.690;9.016;2023-06-26T04:27:08;8.47;;;7.77;;
705;SDS011;21234;48.690;9.016;2023-06-26T04:29:36;9.83;;;7.50;;
705;SDS011;21234;48.690;9.016;2023-06-26T04:32:03;7.33;;;6.63;;
705;SDS011;21234;48.690;9.016;2023-06-26T04:34:34;8.53;;;7.60;;
705;SDS011;21234;48.690;9.016;2023-06-26T04:37:06;10.10;;;7.23;;
705;SDS011;21234;48.690;9.016;2023-06-26T04:39:34;12.10;;;8.60;;
705;SDS011;21234;48.690;9.016;2023-06-26T04:42:03;10.00;;;8.07;;
705;SDS011;21234;48.690;9.016;2023-06-26T04:44:32;10.50;;;7.87;;
705;SDS011;21234;48.690;9.016;2023-06-26T04:46:59;10.27;;;8.37;;
705;SDS011;21234;48.690;9.016;2023-06-26T04:49:26;8.50;;;7.00;;
705;SDS011;21234;48.690;9.016;2023-06-26T04:51:56;9.43;;;7.37;;
705;SDS011;21234;48.690;9.016;2023-06-26T04:54:25;12.17;;;7.90;;
705;SDS011;21234;48.690;9.016;2023-06-26T04:56:52;11.23;;;8.27;;
705;SDS011;21234;48.690;9.016;2023-06-26T04:59:19;9.40;;;8.50;;
705;SDS011;21234;48.690;9.016;2023-06-26T05:01:45;7.20;;;6.50;;
705;SDS011;21234;48.690;9.016;2023-06-26T05:04:13;8.37;;;6.40;;
705;SDS011;21234;48.690;9.016;2023-06-26T05:06:40;9.80;;;8.17;;
705;SDS011;21234;48.690;9.016;2023-06-26T05:09:08;7.23;;;6.53;;
705;SDS011;21234;48.690;9.016;2023-06-26T05:11:36;12.87;;;8.00;;
705;SDS011;21234;48.690;9.016;2023-06-26T05:14:02;8.30;;;7.00;;
705;SDS011;21234;48.690;9.016;2023-06-26T05:16:32;8.70;;;7.77;;
705;SDS011;21234;48.690;9.016;2023-06-26T05:18:59;8.30;;;7.50;;
705;SDS011;21234;48.690;9.016;2023-06-26T05:21:27;8.27;;;7.47;;
705;SDS011;21234;48.690;9.016;2023-06-26T05:23:55;7.90;;;7.10;;
705;SDS011;21234;48.690;9.016;2023-06-26T05:26:25;7.77;;;6.83;;
705;SDS011;21234;48.690;9.016;2023-06-26T05:28:52;7.83;;;6.83;;
705;SDS011;21234;48.690;9.016;2023-06-26T05:31:20;7.10;;;6.00;;
705;SDS011;21234;48.690;9.016;2023-06-26T05:33:46;6.53;;;5.93;;
705;SDS011;21234;48.690;9.016;2023-06-26T05:36:15;8.13;;;6.67;;
705;SDS011;21234;48.690;9.016;2023-06-26T05:38:42;7.20;;;6.50;;
705;SDS011;21234;48.690;9.016;2023-06-26T05:41:10;6.63;;;6.03;;
705;SDS011;21234;48.690;9.016;2023-06-26T05:43:38;8.17;;;6.83;;
705;SDS011;21234;48.690;9.016;2023-06-26T05:46:05;7.13;;;6.47;;
705;SDS011;21234;48.690;9.016;2023-06-26T05:48:32;10.50;;;6.63;;
705;SDS011;21234;48.690;9.016;2023-06-26T05:50:59;7.20;;;6.50;;
705;SDS011;21234;48.690;9.016;2023-06-26T05:53:26;9.23;;;7.93;;
705;SDS011;21234;48.690;9.016;2023-06-26T05:55:53;8.00;;;7.20;;
705;SDS011;21234;48.690;9.016;2023-06-26T05:58:20;7.03;;;6.37;;
705;SDS011;21234;48.690;9.016;2023-06-26T06:00:49;8.30;;;6.63;;
705;SDS011;21234;48.690;9.016;2023-06-26T06:03:16;7.70;;;6.37;;
705;SDS011;21234;48.690;9.016;2023-06-26T06:05:42;6.80;;;6.00;;
705;SDS011;21234;48.690;9.016;2023-06-26T06:08:09;7.47;;;6.27;;
705;SDS011;21234;48.690;9.016;2023-06-26T06:10:36;8.93;;;7.20;;
705;SDS011;21234;48.690;9.016;2023-06-26T06:13:03;7.73;;;6.87;;
705;SDS011;21234;48.690;9.016;2023-06-26T06:15:29;7.17;;;6.47;;
705;SDS011;21234;48.690;9.016;2023-06-26T06:17:57;8.07;;;7.33;;
705;SDS011;21234;48.690;9.016;2023-06-26T06:20:24;6.50;;;5.77;;
705;SDS011;21234;48.690;9.016;2023-06-26T06:22:51;8.17;;;6.30;;
705;SDS011;21234;48.690;9.016;2023-06-26T06:25:18;6.80;;;6.20;;
705;SDS011;21234;48.690;9.016;2023-06-26T06:27:44;7.63;;;6.93;;
705;SDS011;21234;48.690;9.016;2023-06-26T06:30:11;7.40;;;6.70;;
705;SDS011;21234;48.690;9.016;2023-06-26T06:32:38;6.93;;;6.33;;
705;SDS011;21234;48.690;9.016;2023-06-26T06:35:07;13.40;;;6.53;;
705;SDS011;21234;48.690;9.016;2023-06-26T06:37:35;7.37;;;6.67;;
705;SDS011;21234;48.690;9.016;2023-06-26T06:40:03;9.77;;;7.10;;
705;SDS011;21234;48.690;9.016;2023-06-26T06:42:31;8.00;;;7.10;;
705;SDS011;21234;48.690;9.016;2023-06-26T06:44:57;6.97;;;6.27;;
705;SDS011;21234;48.690;9.016;2023-06-26T06:47:24;6.47;;;5.90;;
705;SDS011;21234;48.690;9.016;2023-06-26T06:49:51;7.83;;;7.03;;
705;SDS011;21234;48.690;9.016;2023-06-26T06:52:20;7.00;;;6.30;;
705;SDS011;21234;48.690;9.016;2023-06-26T06:54:53;8.87;;;6.83;;
705;SDS011;21234;48.690;9.016;2023-06-26T06:57:20;7.17;;;6.40;;
705;SDS011;21234;48.690;9.016;2023-06-26T06:59:47;7.00;;;6.40;;
705;SDS011;21234;48.690;9.016;2023-06-26T07:02:14;7.20;;;6.50;;
705;SDS011;21234;48.690;9.016;2023-06-26T07:04:41;7.60;;;6.90;;
705;SDS011;21234;48.690;9.016;2023-06-26T07:07:08;8.03;;;7.23;;
705;SDS011;21234;48.690;9.016;2023-06-26T07:09:36;7.17;;;6.40;;
705;SDS011;21234;48.690;9.016;2023-06-26T07:12:03;8.40;;;7.50;;
705;SDS011;21234;48.690;9.016;2023-06-26T07:14:30;8.37;;;7.23;;
705;SDS011;21234;48.690;9.016;2023-06-26T07:16:57;7.30;;;6.60;;
705;SDS011;21234;48.690;9.016;2023-06-26T07:19:24;11.53;;;7.00;;
705;SDS011;21234;48.690;9.016;2023-06-26T07:21:50;8.73;;;7.03;;
705;SDS011;21234;48.690;9.016;2023-06-26T07:24:17;7.13;;;6.53;;
705;SDS011;21234;48.690;9.016;2023-06-26T07:26:45;7.50;;;6.80;;
705;SDS011;21234;48.690;9.016;2023-06-26T07:29:12;8.37;;;7.57;;
705;SDS011;21234;48.690;9.016;2023-06-26T07:31:38;7.37;;;6.70;;
705;SDS011;21234;48.690;9.016;2023-06-26T07:34:05;7.40;;;6.70;;
705;SDS011;21234;48.690;9.016;2023-06-26T07:36:32;7.17;;;6.47;;
705;SDS011;21234;48.690;9.016;2023-06-26T07:38:58;7.50;;;6.67;;
705;SDS011;21234;48.690;9.016;2023-06-26T07:41:25;6.77;;;6.27;;
705;SDS011;21234;48.690;9.016;2023-06-26T07:43:56;6.73;;;6.23;;
705;SDS011;21234;48.690;9.016;2023-06-26T07:46:23;6.73;;;6.03;;
705;SDS011;21234;48.690;9.016;2023-06-26T07:48:50;7.20;;;6.60;;
705;SDS011;21234;48.690;9.016;2023-06-26T07:51:17;7.50;;;6.83;;
705;SDS011;21234;48.690;9.016;2023-06-26T07:53:43;7.13;;;6.50;;
705;SDS011;21234;48.690;9.016;2023-06-26T07:56:10;7.80;;;7.00;;
705;SDS011;21234;48.690;9.016;2023-06-26T07:58:37;7.50;;;6.50;;
705;SDS011;21234;48.690;9.016;2023-06-26T08:01:05;7.03;;;6.43;;
705;SDS011;21234;48.690;9.016;2023-06-26T08:03:32;6.83;;;6.13;;
705;SDS011;21234;48.690;9.016;2023-06-26T08:05:58;6.63;;;6.03;;
705;SDS011;21234;48.690;9.016;2023-06-26T08:08:26;5.80;;;5.30;;
705;SDS011;21234;48.690;9.016;2023-06-26T08:10:52;6.70;;;6.10;;
705;SDS011;21234;48.690;9.016;2023-06-26T08:13:19;9.03;;;5.63;;
705;SDS011;21234;48.690;9.016;2023-06-26T08:15:46;7.20;;;6.53;;
705;SDS011;21234;48.690;9.016;2023-06-26T08:18:14;7.03;;;6.17;;
705;SDS011;21234;48.690;9.016;2023-06-26T08:20:41;12.00;;;7.87;;
705;SDS011;21234;48.690;9.016;2023-06-26T08:23:07;6.40;;;5.80;;
705;SDS011;21234;48.690;9.016;2023-06-26T08:25:34;6.87;;;5.80;;
705;SDS011;21234;48.690;9.016;2023-06-26T08:28:01;7.43;;;6.73;;
705;SDS011;21234;48.690;9.016;2023-06-26T08:30:28;6.20;;;5.70;;
705;SDS011;21234;48.690;9.016;2023-06-26T08:32:55;5.93;;;5.33;;
705;SDS011;21234;48.690;9.016;2023-06-26T08:35:23;6.67;;;6.07;;
705;SDS011;21234;48.690;9.016;2023-06-26T08:37:50;6.77;;;6.17;;
705;SDS011;21234;48.690;9.016;2023-06-26T08:40:17;7.67;;;6.60;;
705;SDS011;21234;48.690;9.016;2023-06-26T08:42:44;6.80;;;6.17;;
705;SDS011;21234;48.690;9.016;2023-06-26T08:45:11;6.70;;;6.10;;
705;SDS011;21234;48.690;9.016;2023-06-26T08:47:38;6.47;;;5.97;;
705;SDS011;21234;48.690;9.016;2023-06-26T08:50:10;6.13;;;5.63;;
705;SDS011;21234;48.690;9.016;2023-06-26T08:52:42;6.97;;;6.37;;
705;SDS011;21234;48.690;9.016;2023-06-26T08:55:12;9.10;;;6.23;;
705;SDS011;21234;48.690;9.016;2023-06-26T08:57:42;6.80;;;6.20;;
705;SDS011;21234;48.690;9.016;2023-06-26T09:00:09;6.90;;;6.20;;
705;SDS011;21234;48.690;9.016;2023-06-26T09:02:36;7.73;;;6.93;;
705;SDS011;21234;48.690;9.016;2023-06-26T09:05:04;6.63;;;6.10;;
705;SDS011;21234;48.690;9.016;2023-06-26T09:07:31;7.20;;;6.50;;
705;SDS011;21234;48.690;9.016;2023-06-26T09:09:59;7.57;;;6.90;;
705;SDS011;21234;48.690;9.016;2023-06-26T09:12:26;8.00;;;6.30;;
705;SDS011;21234;48.690;9.016;2023-06-26T09:14:54;6.10;;;5.60;;
705;SDS011;21234;48.690;9.016;2023-06-26T09:17:24;6.70;;;6.17;;
705;SDS011;21234;48.690;9.016;2023-06-26T09:19:51;5.90;;;5.40;;
705;SDS011;21234;48.690;9.016;2023-06-26T09:22:18;7.73;;;7.10;;
705;SDS011;21234;48.690;9.016;2023-06-26T09:24:45;8.40;;;7.57;;
705;SDS011;21234;48.690;9.016;2023-06-26T09:27:13;7.00;;;6.37;;
705;SDS011;21234;48.690;9.016;2023-06-26T09:29:40;7.53;;;6.93;;
705;SDS011;21234;48.690;9.016;2023-06-26T09:32:07;7.03;;;6.40;;
705;SDS011;21234;48.690;9.016;2023-06-26T09:34:34;7.13;;;6.43;;
705;SDS011;21234;48.690;9.016;2023-06-26T09:37:01;7.13;;;6.63;;
705;SDS011;21234;48.690;9.016;2023-06-26T09:39:30;9.17;;;8.47;;
705;SDS011;21234;48.690;9.016;2023-06-26T09:41:57;7.60;;;7.00;;
705;SDS011;21234;48.690;9.016;2023-06-26T09:44:25;6.27;;;5.67;;
705;SDS011;21234;48.690;9.016;2023-06-26T09:46:52;7.70;;;7.00;;
705;SDS011;21234;48.690;9.016;2023-06-26T09:49:23;7.20;;;6.60;;
705;SDS011;21234;48.690;9.016;2023-06-26T09:51:51;7.00;;;6.50;;
705;SDS011;21234;48.690;9.016;2023-06-26T09:54:17;7.20;;;6.60;;
705;SDS011;21234;48.690;9.016;2023-06-26T09:56:47;7.20;;;6.57;;
705;SDS011;21234;48.690;9.016;2023-06-26T09:59:14;7.50;;;6.70;;
705;SDS011;21234;48.690;9.016;2023-06-26T10:01:45;7.67;;;6.67;;
705;SDS011;21234;48.690;9.016;2023-06-26T10:04:12;6.80;;;6.20;;
705;SDS011;21234;48.690;9.016;2023-06-26T10:06:41;7.87;;;7.07;;
705;SDS011;21234;48.690;9.016;2023-06-26T10:09:12;7.90;;;7.00;;
705;SDS011;21234;48.690;9.016;2023-06-26T10:11:41;9.00;;;6.53;;
705;SDS011;21234;48.690;9.016;2023-06-26T10:14:14;7.37;;;6.70;;
705;SDS011;21234;48.690;9.016;2023-06-26T10:16:43;7.77;;;7.17;;
705;SDS011;21234;48.690;9.016;2023-06-26T10:19:12;6.80;;;6.30;;
705;SDS011;21234;48.690;9.016;2023-06-26T10:21:41;7.70;;;7.10;;
705;SDS011;21234;48.690;9.016;2023-06-26T10:24:08;7.47;;;6.87;;
705;SDS011;21234;48.690;9.016;2023-06-26T10:26:44;8.50;;;6.50;;
705;SDS011;21234;48.690;9.016;2023-06-26T10:29:12;8.10;;;7.43;;
705;SDS011;21234;48.690;9.016;2023-06-26T10:31:44;8.17;;;7.47;;
705;SDS011;21234;48.690;9.016;2023-06-26T10:34:16;8.63;;;7.93;;
705;SDS011;21234;48.690;9.016;2023-06-26T10:36:44;8.97;;;8.10;;
705;SDS011;21234;48.690;9.016;2023-06-26T10:39:12;8.90;;;8.20;;
705;SDS011;21234;48.690;9.016;2023-06-26T10:41:39;8.87;;;8.07;;
705;SDS011;21234;48.690;9.016;2023-06-26T10:44:08;9.70;;;8.80;;
705;SDS011;21234;48.690;9.016;2023-06-26T10:46:50;9.03;;;8.20;;
705;SDS011;21234;48.690;9.016;2023-06-26T10:49:18;8.43;;;7.63;;
705;SDS011;21234;48.690;9.016;2023-06-26T10:51:48;8.50;;;7.80;;
705;SDS011;21234;48.690;9.016;2023-06-26T10:54:16;9.20;;;8.30;;
705;SDS011;21234;48.690;9.016;2023-06-26T10:56:44;8.83;;;8.13;;
705;SDS011;21234;48.690;9.016;2023-06-26T10:59:16;9.00;;;8.20;;
705;SDS011;21234;48.690;9.016;2023-06-26T11:01:44;8.53;;;7.80;;
705;SDS011;21234;48.690;9.016;2023-06-26T11:04:14;8.27;;;7.67;;
705;SDS011;21234;48.690;9.016;2023-06-26T11:06:44;9.83;;;8.97;;
705;SDS011;21234;48.690;9.016;2023-06-26T11:09:14;9.07;;;8.27;;
705;SDS011;21234;48.690;9.016;2023-06-26T11:12:00;8.30;;;7.50;;
705;SDS011;21234;48.690;9.016;2023-06-26T11:14:33;8.30;;;7.57;;
705;SDS011;21234;48.690;9.016;2023-06-26T11:17:02;8.30;;;7.60;;
705;SDS011;21234;48.690;9.016;2023-06-26T11:19:31;8.23;;;7.63;;
705;SDS011;21234;48.690;9.016;2023-06-26T11:21:59;8.90;;;8.07;;
705;SDS011;21234;48.690;9.016;2023-06-26T11:24:29;8.10;;;7.40;;
705;SDS011;21234;48.690;9.016;2023-06-26T11:27:00;8.27;;;7.43;;
705;SDS011;21234;48.690;9.016;2023-06-26T11:29:29;9.17;;;8.23;;
705;SDS011;21234;48.690;9.016;2023-06-26T11:32:00;8.97;;;8.17;;
705;SDS011;21234;48.690;9.016;2023-06-26T11:34:32;7.73;;;7.10;;
705;SDS011;21234;48.690;9.016;2023-06-26T11:36:59;8.40;;;7.70;;
705;SDS011;21234;48.690;9.016;2023-06-26T11:39:29;8.00;;;7.30;;
705;SDS011;21234;48.690;9.016;2023-06-26T11:41:56;8.90;;;8.10;;
705;SDS011;21234;48.690;9.016;2023-06-26T11:44:23;8.33;;;7.53;;
705;SDS011;21234;48.690;9.016;2023-06-26T11:46:53;8.30;;;7.60;;
705;SDS011;21234;48.690;9.016;2023-06-26T11:49:20;8.73;;;7.83;;
705;SDS011;21234;48.690;9.016;2023-06-26T11:51:52;8.37;;;7.10;;
705;SDS011;21234;48.690;9.016;2023-06-26T11:54:24;9.03;;;7.60;;
705;SDS011;21234;48.690;9.016;2023-06-26T11:56:52;8.80;;;7.97;;
705;SDS011;21234;48.690;9.016;2023-06-26T11:59:21;8.27;;;7.60;;
705;SDS011;21234;48.690;9.016;2023-06-26T12:01:49;7.77;;;6.73;;
705;SDS011;21234;48.690;9.016;2023-06-26T12:04:17;9.03;;;8.20;;
705;SDS011;21234;48.690;9.016;2023-06-26T12:06:46;9.10;;;8.30;;
705;SDS011;21234;48.690;9.016;2023-06-26T12:09:16;10.17;;;8.37;;
705;SDS011;21234;48.690;9.016;2023-06-26T12:11:46;8.17;;;7.47;;
705;SDS011;21234;48.690;9.016;2023-06-26T12:14:14;7.43;;;6.83;;
705;SDS011;21234;48.690;9.016;2023-06-26T12:16:41;8.93;;;8.13;;
705;SDS011;21234;48.690;9.016;2023-06-26T12:19:08;8.50;;;7.80;;
705;SDS011;21234;48.690;9.016;2023-06-26T12:21:45;8.53;;;7.30;;
705;SDS011;21234;48.690;9.016;2023-06-26T12:24:17;8.33;;;7.60;;
705;SDS011;21234;48.690;9.016;2023-06-26T12:26:46;8.50;;;7.80;;
705;SDS011;21234;48.690;9.016;2023-06-26T12:29:14;9.10;;;8.40;;
705;SDS011;21234;48.690;9.016;2023-06-26T12:31:42;8.27;;;7.57;;
705;SDS011;21234;48.690;9.016;2023-06-26T12:34:11;11.10;;;7.07;;
705;SDS011;21234;48.690;9.016;2023-06-26T12:36:42;8.40;;;7.60;;
705;SDS011;21234;48.690;9.016;2023-06-26T12:39:09;8.50;;;7.80;;
705;SDS011;21234;48.690;9.016;2023-06-26T12:41:48;7.70;;;7.00;;
705;SDS011;21234;48.690;9.016;2023-06-26T12:44:18;7.87;;;7.27;;
705;SDS011;21234;48.690;9.016;2023-06-26T12:46:46;7.63;;;7.00;;
705;SDS011;21234;48.690;9.016;2023-06-26T12:49:15;8.53;;;7.47;;
705;SDS011;21234;48.690;9.016;2023-06-26T12:51:42;8.93;;;6.90;;
705;SDS011;21234;48.690;9.016;2023-06-26T12:54:09;7.63;;;6.93;;
705;SDS011;21234;48.690;9.016;2023-06-26T12:56:36;8.70;;;7.90;;
705;SDS011;21234;48.690;9.016;2023-06-26T12:59:04;8.40;;;7.53;;
705;SDS011;21234;48.690;9.016;2023-06-26T13:01:31;8.53;;;7.67;;
705;SDS011;21234;48.690;9.016;2023-06-26T13:03:58;9.00;;;8.20;;
705;SDS011;21234;48.690;9.016;2023-06-26T13:06:24;8.57;;;7.67;;
705;SDS011;21234;48.690;9.016;2023-06-26T13:08:51;8.70;;;7.03;;
705;SDS011;21234;48.690;9.016;2023-06-26T13:11:18;8.10;;;6.47;;
705;SDS011;21234;48.690;9.016;2023-06-26T13:13:46;7.67;;;6.87;;
705;SDS011;21234;48.690;9.016;2023-06-26T13:16:14;11.53;;;8.10;;
705;SDS011;21234;48.690;9.016;2023-06-26T13:18:43;7.97;;;7.10;;
705;SDS011;21234;48.690;9.016;2023-06-26T13:21:10;7.93;;;7.10;;
705;SDS011;21234;48.690;9.016;2023-06-26T13:23:37;10.07;;;6.90;;
705;SDS011;21234;48.690;9.016;2023-06-26T13:26:04;10.80;;;7.40;;
705;SDS011;21234;48.690;9.016;2023-06-26T13:28:31;8.60;;;7.27;;
705;SDS011;21234;48.690;9.016;2023-06-26T13:30:58;7.10;;;6.40;;
705;SDS011;21234;48.690;9.016;2023-06-26T13:33:26;8.67;;;6.87;;
705;SDS011;21234;48.690;9.016;2023-06-26T13:35:53;9.40;;;7.00;;
705;SDS011;21234;48.690;9.016;2023-06-26T13:38:20;6.57;;;5.97;;
705;SDS011;21234;48.690;9.016;2023-06-26T13:40:49;8.30;;;7.50;;
705;SDS011;21234;48.690;9.016;2023-06-26T13:43:16;7.70;;;6.30;;
705;SDS011;21234;48.690;9.016;2023-06-26T13:45:43;6.83;;;6.23;;
705;SDS011;21234;48.690;9.016;2023-06-26T13:48:10;7.73;;;7.03;;
705;SDS011;21234;48.690;9.016;2023-06-26T13:50:38;7.17;;;6.57;;
705;SDS011;21234;48.690;9.016;2023-06-26T13:53:05;8.73;;;6.20;;
705;SDS011;21234;48.690;9.016;2023-06-26T13:55:32;6.73;;;5.90;;
705;SDS011;21234;48.690;9.016;2023-06-26T13:57:59;6.30;;;5.70;;
705;SDS011;21234;48.690;9.016;2023-06-26T14:00:26;8.60;;;5.90;;
705;SDS011;21234;48.690;9.016;2023-06-26T14:02:53;6.03;;;5.53;;
705;SDS011;21234;48.690;9.016;2023-06-26T14:05:21;6.63;;;6.03;;
705;SDS011;21234;48.690;9.016;2023-06-26T14:07:49;6.47;;;5.87;;
705;SDS011;21234;48.690;9.016;2023-06-26T14:10:16;6.30;;;5.70;;
705;SDS011;21234;48.690;9.016;2023-06-26T14:12:47;7.13;;;6.53;;
705;SDS011;21234;48.690;9.016;2023-06-26T14:15:26;5.80;;;5.27;;
705;SDS011;21234;48.690;9.016;2023-06-26T14:18:05;6.77;;;6.17;;
705;SDS011;21234;48.690;9.016;2023-06-26T14:20:41;6.30;;;5.80;;
705;SDS011;21234;48.690;9.016;2023-06-26T14:23:16;6.17;;;5.57;;
705;SDS011;21234;48.690;9.016;2023-06-26T14:25:43;5.67;;;5.17;;
705;SDS011;21234;48.690;9.016;2023-06-26T14:28:10;6.00;;;5.50;;
705;SDS011;21234;48.690;9.016;2023-06-26T14:30:36;7.10;;;5.40;;
705;SDS011;21234;48.690;9.016;2023-06-26T14:33:03;6.03;;;5.43;;
705;SDS011;21234;48.690;9.016;2023-06-26T14:35:30;6.03;;;5.50;;
705;SDS011;21234;48.690;9.016;2023-06-26T14:37:56;5.30;;;4.80;;
705;SDS011;21234;48.690;9.016;2023-06-26T14:40:25;5.87;;;4.50;;
705;SDS011;21234;48.690;9.016;2023-06-26T14:42:51;5.53;;;4.80;;
705;SDS011;21234;48.690;9.016;2023-06-26T14:45:19;5.10;;;4.60;;
705;SDS011;21234;48.690;9.016;2023-06-26T14:47:46;4.27;;;3.87;;
705;SDS011;21234;48.690;9.016;2023-06-26T14:50:12;4.97;;;4.57;;
705;SDS011;21234;48.690;9.016;2023-06-26T14:52:39;5.20;;;4.70;;
705;SDS011;21234;48.690;9.016;2023-06-26T14:55:06;5.27;;;4.77;;
705;SDS011;21234;48.690;9.016;2023-06-26T14:57:34;5.10;;;4.37;;
705;SDS011;21234;48.690;9.016;2023-06-26T15:00:01;4.83;;;4.00;;
705;SDS011;21234;48.690;9.016;2023-06-26T15:02:28;5.23;;;4.80;;
705;SDS011;21234;48.690;9.016;2023-06-26T15:04:55;4.43;;;4.03;;
705;SDS011;21234;48.690;9.016;2023-06-26T15:07:21;5.80;;;4.63;;
705;SDS011;21234;48.690;9.016;2023-06-26T15:09:48;4.50;;;4.10;;
705;SDS011;21234;48.690;9.016;2023-06-26T15:12:15;7.00;;;4.83;;
705;SDS011;21234;48.690;9.016;2023-06-26T15:14:43;5.30;;;4.80;;
705;SDS011;21234;48.690;9.016;2023-06-26T15:17:10;7.17;;;5.63;;
705;SDS011;21234;48.690;9.016;2023-06-26T15:19:37;5.57;;;4.80;;